NDF4028 EDDH-EDDS
Flight info
| Callsign | NDF4028 |
|---|---|
| Flight time | 1h 3m |
| Altitude | 23000 |
| Route | AMLUH2G AMLUH M852 DENIX Z113 SAS/N0437F310 P605 ELNAT/N0387F230 P605 TOSTU T726 LBU DCT |
| Aircraft | A321/M-SDE3FGHIRWY/LB1 |
Departure
| Time | 2026-04-24 20:08 |
|---|---|
| Airport | Hamburg Helmut Schmidt Airport (EDDH) |
Arrival
| Time | 2026-04-24 21:11 |
|---|---|
| Airport | Stuttgart Airport (EDDS) |
| Time | Latitude | Longitude | Altitude | Speed | Heading |
|---|---|---|---|---|---|
| 2026-04-24 19:19 | 53.63168 | 10.00373 | 49 ft | 0 kts | 87° |
| 2026-04-24 19:52 | 53.63168 | 10.00372 | 76 ft | 1 kts | 87° |
| 2026-04-24 19:53 | 53.63162 | 10.00336 | 48 ft | 4 kts | 62° |
| 2026-04-24 19:53 | 53.63154 | 10.00302 | 48 ft | 4 kts | 73° |
| 2026-04-24 19:53 | 53.63150 | 10.00214 | 48 ft | 4 kts | 105° |
| 2026-04-24 19:54 | 53.63160 | 10.00173 | 46 ft | 4 kts | 125° |
| 2026-04-24 19:54 | 53.63178 | 10.00139 | 45 ft | 4 kts | 140° |
| 2026-04-24 19:54 | 53.63198 | 10.00110 | 42 ft | 4 kts | 130° |
| 2026-04-24 19:54 | 53.63207 | 10.00089 | 47 ft | 2 kts | 52° |
| 2026-04-24 19:55 | 53.63207 | 10.00088 | 47 ft | 0 kts | 50° |
| 2026-04-24 19:58 | 53.63213 | 10.00100 | 43 ft | 3 kts | 50° |
| 2026-04-24 19:58 | 53.63219 | 10.00129 | 46 ft | 2 kts | 89° |
| 2026-04-24 19:59 | 53.63213 | 10.00150 | 45 ft | 2 kts | 118° |
| 2026-04-24 19:59 | 53.63204 | 10.00166 | 47 ft | 3 kts | 140° |
| 2026-04-24 19:59 | 53.63179 | 10.00182 | 46 ft | 4 kts | 171° |
| 2026-04-24 19:59 | 53.63153 | 10.00186 | 45 ft | 4 kts | 175° |
| 2026-04-24 20:00 | 53.63107 | 10.00192 | 48 ft | 9 kts | 175° |
| 2026-04-24 20:00 | 53.63047 | 10.00159 | 48 ft | 9 kts | 210° |
| 2026-04-24 20:00 | 53.63012 | 10.00122 | 48 ft | 0 kts | 212° |
| 2026-04-24 20:00 | 53.63006 | 10.00116 | 48 ft | 5 kts | 212° |
| 2026-04-24 20:01 | 53.62989 | 10.00098 | 48 ft | 0 kts | 213° |
| 2026-04-24 20:01 | 53.62973 | 10.00080 | 47 ft | 9 kts | 212° |
| 2026-04-24 20:01 | 53.62964 | 10.00070 | 48 ft | 3 kts | 213° |
| 2026-04-24 20:02 | 53.62956 | 10.00062 | 48 ft | 0 kts | 213° |
| 2026-04-24 20:04 | 53.62956 | 10.00061 | 48 ft | 1 kts | 213° |
| 2026-04-24 20:04 | 53.62928 | 10.00017 | 48 ft | 0 kts | 236° |
| 2026-04-24 20:04 | 53.62928 | 10.00015 | 48 ft | 1 kts | 237° |
| 2026-04-24 20:05 | 53.62921 | 9.99996 | 48 ft | 0 kts | 242° |
| 2026-04-24 20:06 | 53.62911 | 9.99962 | 48 ft | 11 kts | 242° |
| 2026-04-24 20:06 | 53.62873 | 9.99839 | 44 ft | 11 kts | 244° |
| 2026-04-24 20:06 | 53.62865 | 9.99755 | 45 ft | 1 kts | 295° |
| 2026-04-24 20:07 | 53.62871 | 9.99746 | 45 ft | 3 kts | 317° |
| 2026-04-24 20:07 | 53.62976 | 9.99654 | 44 ft | 38 kts | 333° |
| 2026-04-24 20:07 | 53.63429 | 9.99254 | 47 ft | 106 kts | 332° |
| 2026-04-24 20:07 | 53.64233 | 9.98526 | 89 ft | 151 kts | 329° |
| 2026-04-24 20:08 | 53.65140 | 9.97755 | 739 ft | 145 kts | 332° |
| 2026-04-24 20:08 | 53.66047 | 9.96996 | 1423 ft | 143 kts | 333° |
| 2026-04-24 20:08 | 53.66935 | 9.96237 | 2020 ft | 147 kts | 330° |
| 2026-04-24 20:08 | 53.67910 | 9.95395 | 2293 ft | 167 kts | 332° |
| 2026-04-24 20:09 | 53.69070 | 9.94696 | 2497 ft | 187 kts | 349° |
| 2026-04-24 20:09 | 53.70400 | 9.94668 | 2891 ft | 193 kts | 357° |
| 2026-04-24 20:09 | 53.71747 | 9.94736 | 3323 ft | 196 kts | 4° |
| 2026-04-24 20:09 | 53.72947 | 9.95941 | 3678 ft | 216 kts | 45° |
| 2026-04-24 20:10 | 53.73640 | 9.98256 | 4105 ft | 225 kts | 63° |
| 2026-04-24 20:10 | 53.74113 | 10.00798 | 4528 ft | 230 kts | 71° |
| 2026-04-24 20:10 | 53.74094 | 10.03555 | 4903 ft | 243 kts | 98° |
| 2026-04-24 20:10 | 53.73395 | 10.06251 | 4998 ft | 263 kts | 119° |
| 2026-04-24 20:11 | 53.72423 | 10.08978 | 5002 ft | 279 kts | 118° |
| 2026-04-24 20:11 | 53.71410 | 10.11941 | 5472 ft | 294 kts | 117° |
| 2026-04-24 20:11 | 53.70398 | 10.14948 | 6408 ft | 295 kts | 117° |
| 2026-04-24 20:11 | 53.69280 | 10.17884 | 7196 ft | 301 kts | 129° |
| 2026-04-24 20:12 | 53.67715 | 10.20271 | 7946 ft | 307 kts | 147° |
| 2026-04-24 20:12 | 53.65806 | 10.21801 | 8701 ft | 310 kts | 165° |
| 2026-04-24 20:12 | 53.63711 | 10.22759 | 9492 ft | 314 kts | 167° |
| 2026-04-24 20:12 | 53.61579 | 10.23719 | 9990 ft | 320 kts | 167° |
| 2026-04-24 20:13 | 53.59426 | 10.24697 | 10116 ft | 324 kts | 167° |
| 2026-04-24 20:13 | 53.57155 | 10.25729 | 10142 ft | 346 kts | 167° |
| 2026-04-24 20:13 | 53.54827 | 10.26796 | 10131 ft | 354 kts | 166° |
| 2026-04-24 20:13 | 53.52421 | 10.27899 | 10164 ft | 362 kts | 166° |
| 2026-04-24 20:14 | 53.49970 | 10.29019 | 10781 ft | 366 kts | 166° |
| 2026-04-24 20:14 | 53.47503 | 10.30145 | 11578 ft | 368 kts | 167° |
| 2026-04-24 20:14 | 53.45019 | 10.31278 | 12343 ft | 371 kts | 167° |
| 2026-04-24 20:14 | 53.42519 | 10.32416 | 13099 ft | 374 kts | 167° |
| 2026-04-24 20:15 | 53.39993 | 10.33564 | 13851 ft | 377 kts | 167° |
| 2026-04-24 20:15 | 53.37448 | 10.34712 | 14471 ft | 381 kts | 167° |
| 2026-04-24 20:15 | 53.34875 | 10.35866 | 15119 ft | 384 kts | 167° |
| 2026-04-24 20:15 | 53.32282 | 10.37027 | 15785 ft | 387 kts | 167° |
| 2026-04-24 20:16 | 53.29671 | 10.38196 | 16446 ft | 390 kts | 167° |
| 2026-04-24 20:16 | 53.27044 | 10.39374 | 17102 ft | 392 kts | 168° |
| 2026-04-24 20:16 | 53.24403 | 10.40555 | 17756 ft | 394 kts | 168° |
| 2026-04-24 20:16 | 53.21738 | 10.41745 | 18399 ft | 397 kts | 168° |
| 2026-04-24 20:17 | 53.19058 | 10.42940 | 18951 ft | 400 kts | 168° |
| 2026-04-24 20:17 | 53.13627 | 10.45193 | 20029 ft | 402 kts | 175° |
| 2026-04-24 20:17 | 53.10839 | 10.45495 | 20559 ft | 400 kts | 185° |
| 2026-04-24 20:18 | 53.09003 | 10.45326 | 20915 ft | 400 kts | 187° |
| 2026-04-24 20:18 | 53.05271 | 10.44939 | 21650 ft | 403 kts | 187° |
| 2026-04-24 20:18 | 53.02468 | 10.44658 | 22194 ft | 405 kts | 187° |
| 2026-04-24 20:18 | 52.99641 | 10.44379 | 22732 ft | 407 kts | 187° |
| 2026-04-24 20:19 | 52.96806 | 10.44099 | 23261 ft | 409 kts | 187° |
| 2026-04-24 20:19 | 52.93993 | 10.43820 | 23756 ft | 411 kts | 187° |
| 2026-04-24 20:19 | 52.91129 | 10.43537 | 24056 ft | 413 kts | 188° |
| 2026-04-24 20:19 | 52.88259 | 10.43255 | 24139 ft | 410 kts | 188° |
| 2026-04-24 20:20 | 52.85423 | 10.42979 | 24155 ft | 409 kts | 188° |
| 2026-04-24 20:20 | 52.82535 | 10.42696 | 24256 ft | 421 kts | 188° |
| 2026-04-24 20:20 | 52.79572 | 10.42400 | 24379 ft | 432 kts | 188° |
| 2026-04-24 20:20 | 52.76543 | 10.42093 | 24501 ft | 441 kts | 187° |
| 2026-04-24 20:21 | 52.73482 | 10.41609 | 24817 ft | 441 kts | 194° |
| 2026-04-24 20:21 | 52.70541 | 10.40307 | 25282 ft | 434 kts | 205° |
| 2026-04-24 20:21 | 52.67773 | 10.38512 | 26137 ft | 424 kts | 202° |
| 2026-04-24 20:21 | 52.64852 | 10.37718 | 26752 ft | 431 kts | 187° |
| 2026-04-24 20:22 | 52.61842 | 10.37712 | 27216 ft | 433 kts | 185° |
| 2026-04-24 20:22 | 52.58816 | 10.37788 | 27615 ft | 435 kts | 184° |
| 2026-04-24 20:22 | 52.55786 | 10.37882 | 28010 ft | 437 kts | 184° |
| 2026-04-24 20:22 | 52.52733 | 10.37978 | 28370 ft | 439 kts | 184° |
| 2026-04-24 20:23 | 52.49672 | 10.38073 | 28746 ft | 441 kts | 184° |
| 2026-04-24 20:23 | 52.46597 | 10.38178 | 29106 ft | 443 kts | 184° |
| 2026-04-24 20:23 | 52.43507 | 10.38293 | 29455 ft | 446 kts | 184° |
| 2026-04-24 20:23 | 52.40393 | 10.38416 | 29794 ft | 448 kts | 184° |
| 2026-04-24 20:24 | 52.38349 | 10.38384 | 30244 ft | 437 kts | 191° |
| 2026-04-24 20:24 | 52.34516 | 10.36865 | 30959 ft | 416 kts | 209° |
| 2026-04-24 20:24 | 52.31871 | 10.34977 | 31124 ft | 413 kts | 210° |
| 2026-04-24 20:24 | 52.29250 | 10.33046 | 31154 ft | 411 kts | 210° |
| 2026-04-24 20:25 | 52.24095 | 10.29185 | 31162 ft | 410 kts | 210° |
| 2026-04-24 20:25 | 52.18899 | 10.25321 | 31167 ft | 410 kts | 210° |
| 2026-04-24 20:26 | 52.13694 | 10.21492 | 31166 ft | 410 kts | 210° |
| 2026-04-24 20:26 | 52.08487 | 10.17691 | 31168 ft | 410 kts | 210° |
| 2026-04-24 20:27 | 52.03285 | 10.13905 | 31157 ft | 409 kts | 210° |
| 2026-04-24 20:27 | 51.98083 | 10.10120 | 31158 ft | 409 kts | 210° |
| 2026-04-24 20:28 | 51.92885 | 10.06341 | 31164 ft | 409 kts | 210° |
| 2026-04-24 20:28 | 51.87693 | 10.02574 | 31166 ft | 409 kts | 210° |
| 2026-04-24 20:29 | 51.82492 | 9.98814 | 31152 ft | 409 kts | 210° |
| 2026-04-24 20:29 | 51.77302 | 9.95067 | 31160 ft | 408 kts | 210° |
| 2026-04-24 20:30 | 51.72117 | 9.91340 | 31166 ft | 408 kts | 210° |
| 2026-04-24 20:30 | 51.66614 | 9.89037 | 31176 ft | 424 kts | 189° |
| 2026-04-24 20:31 | 51.60713 | 9.88592 | 31150 ft | 424 kts | 189° |
| 2026-04-24 20:31 | 51.54810 | 9.88219 | 31156 ft | 425 kts | 188° |
| 2026-04-24 20:32 | 51.48901 | 9.87831 | 31155 ft | 424 kts | 189° |
| 2026-04-24 20:32 | 51.42998 | 9.87424 | 31159 ft | 424 kts | 189° |
| 2026-04-24 20:33 | 51.37096 | 9.87009 | 31130 ft | 424 kts | 188° |
| 2026-04-24 20:33 | 51.31203 | 9.86600 | 31139 ft | 424 kts | 188° |
| 2026-04-24 20:34 | 51.25306 | 9.86191 | 31145 ft | 424 kts | 188° |
| 2026-04-24 20:34 | 51.19402 | 9.85789 | 31149 ft | 424 kts | 188° |
| 2026-04-24 20:35 | 51.13540 | 9.85392 | 30869 ft | 423 kts | 188° |
| 2026-04-24 20:35 | 51.10607 | 9.85197 | 30626 ft | 421 kts | 188° |
| 2026-04-24 20:35 | 51.07687 | 9.85002 | 30384 ft | 419 kts | 188° |
| 2026-04-24 20:36 | 51.04739 | 9.84800 | 30121 ft | 418 kts | 188° |
| 2026-04-24 20:36 | 51.01872 | 9.84604 | 29843 ft | 416 kts | 188° |
| 2026-04-24 20:36 | 50.98980 | 9.84410 | 29560 ft | 415 kts | 188° |
| 2026-04-24 20:36 | 50.96094 | 9.84220 | 29280 ft | 413 kts | 188° |
| 2026-04-24 20:37 | 50.93228 | 9.84030 | 29001 ft | 412 kts | 188° |
| 2026-04-24 20:37 | 50.90371 | 9.83838 | 28719 ft | 410 kts | 188° |
| 2026-04-24 20:37 | 50.87523 | 9.83645 | 28448 ft | 409 kts | 188° |
| 2026-04-24 20:37 | 50.84691 | 9.83452 | 28180 ft | 407 kts | 187° |
| 2026-04-24 20:38 | 50.81861 | 9.83259 | 27917 ft | 405 kts | 187° |
| 2026-04-24 20:38 | 50.79045 | 9.83070 | 27653 ft | 404 kts | 187° |
| 2026-04-24 20:38 | 50.76236 | 9.82882 | 27389 ft | 403 kts | 187° |
| 2026-04-24 20:38 | 50.73441 | 9.82695 | 27136 ft | 401 kts | 187° |
| 2026-04-24 20:39 | 50.70657 | 9.82508 | 26881 ft | 400 kts | 187° |
| 2026-04-24 20:39 | 50.67879 | 9.82323 | 26628 ft | 399 kts | 187° |
| 2026-04-24 20:39 | 50.65110 | 9.82142 | 26376 ft | 397 kts | 187° |
| 2026-04-24 20:39 | 50.62351 | 9.81959 | 26127 ft | 396 kts | 187° |
| 2026-04-24 20:40 | 50.59599 | 9.81774 | 25880 ft | 396 kts | 187° |
| 2026-04-24 20:40 | 50.56848 | 9.81587 | 25634 ft | 396 kts | 187° |
| 2026-04-24 20:40 | 50.54094 | 9.81401 | 25393 ft | 395 kts | 187° |
| 2026-04-24 20:40 | 50.51387 | 9.81222 | 25194 ft | 394 kts | 187° |
| 2026-04-24 20:41 | 50.48618 | 9.81038 | 25165 ft | 393 kts | 187° |
| 2026-04-24 20:41 | 50.45882 | 9.80856 | 25156 ft | 394 kts | 187° |
| 2026-04-24 20:41 | 50.43146 | 9.80678 | 25166 ft | 394 kts | 187° |
| 2026-04-24 20:41 | 50.40410 | 9.80502 | 25168 ft | 393 kts | 187° |
| 2026-04-24 20:42 | 50.37679 | 9.80325 | 25168 ft | 393 kts | 187° |
| 2026-04-24 20:42 | 50.34944 | 9.80145 | 25168 ft | 393 kts | 187° |
| 2026-04-24 20:42 | 50.33134 | 9.80024 | 25168 ft | 393 kts | 187° |
| 2026-04-24 20:42 | 50.29507 | 9.79781 | 25168 ft | 393 kts | 187° |
| 2026-04-24 20:43 | 50.26769 | 9.79596 | 25168 ft | 393 kts | 187° |
| 2026-04-24 20:43 | 50.24956 | 9.79477 | 25168 ft | 393 kts | 187° |
| 2026-04-24 20:43 | 50.21293 | 9.79241 | 25107 ft | 395 kts | 187° |
| 2026-04-24 20:43 | 50.19481 | 9.79122 | 24941 ft | 393 kts | 187° |
| 2026-04-24 20:44 | 50.16745 | 9.78943 | 24701 ft | 392 kts | 186° |
| 2026-04-24 20:44 | 50.14025 | 9.78766 | 24467 ft | 391 kts | 186° |
| 2026-04-24 20:44 | 50.11311 | 9.78590 | 24234 ft | 390 kts | 186° |
| 2026-04-24 20:44 | 50.08605 | 9.78415 | 24000 ft | 388 kts | 186° |
| 2026-04-24 20:45 | 50.05905 | 9.78288 | 23771 ft | 388 kts | 184° |
| 2026-04-24 20:45 | 50.03199 | 9.78342 | 23504 ft | 389 kts | 182° |
| 2026-04-24 20:45 | 50.00495 | 9.78521 | 23207 ft | 388 kts | 180° |
| 2026-04-24 20:45 | 49.97807 | 9.78756 | 22947 ft | 387 kts | 180° |
| 2026-04-24 20:46 | 49.95122 | 9.79000 | 22690 ft | 385 kts | 180° |
| 2026-04-24 20:46 | 49.92449 | 9.79229 | 22417 ft | 383 kts | 180° |
| 2026-04-24 20:46 | 49.89792 | 9.79433 | 22152 ft | 381 kts | 181° |
| 2026-04-24 20:46 | 49.87143 | 9.79611 | 21894 ft | 380 kts | 181° |
| 2026-04-24 20:47 | 49.84506 | 9.79777 | 21638 ft | 378 kts | 181° |
| 2026-04-24 20:47 | 49.81886 | 9.79939 | 21379 ft | 376 kts | 181° |
| 2026-04-24 20:47 | 49.79270 | 9.80102 | 21159 ft | 375 kts | 181° |
| 2026-04-24 20:47 | 49.76698 | 9.80259 | 20817 ft | 373 kts | 181° |
| 2026-04-24 20:48 | 49.74113 | 9.80419 | 20453 ft | 371 kts | 181° |
| 2026-04-24 20:48 | 49.71540 | 9.80585 | 20072 ft | 368 kts | 180° |
| 2026-04-24 20:48 | 49.68984 | 9.80741 | 19719 ft | 366 kts | 181° |
| 2026-04-24 20:48 | 49.66443 | 9.80869 | 19365 ft | 364 kts | 181° |
| 2026-04-24 20:49 | 49.63918 | 9.80980 | 19014 ft | 362 kts | 181° |
| 2026-04-24 20:49 | 49.61404 | 9.81090 | 18659 ft | 360 kts | 180° |
| 2026-04-24 20:49 | 49.58921 | 9.81595 | 18278 ft | 360 kts | 173° |
| 2026-04-24 20:49 | 49.56457 | 9.82273 | 17902 ft | 359 kts | 172° |
| 2026-04-24 20:50 | 49.54003 | 9.82955 | 17537 ft | 357 kts | 172° |
| 2026-04-24 20:50 | 49.51564 | 9.83632 | 17181 ft | 355 kts | 172° |
| 2026-04-24 20:50 | 49.49138 | 9.84302 | 16824 ft | 354 kts | 172° |
| 2026-04-24 20:50 | 49.46719 | 9.84973 | 16471 ft | 352 kts | 172° |
| 2026-04-24 20:51 | 49.44304 | 9.85643 | 16113 ft | 351 kts | 172° |
| 2026-04-24 20:51 | 49.41903 | 9.86308 | 15769 ft | 350 kts | 171° |
| 2026-04-24 20:51 | 49.39534 | 9.86963 | 15415 ft | 350 kts | 171° |
| 2026-04-24 20:51 | 49.37139 | 9.87622 | 15066 ft | 349 kts | 171° |
| 2026-04-24 20:52 | 49.34748 | 9.88281 | 14711 ft | 348 kts | 171° |
| 2026-04-24 20:52 | 49.32375 | 9.88934 | 14363 ft | 346 kts | 171° |
| 2026-04-24 20:52 | 49.30009 | 9.89581 | 14017 ft | 344 kts | 171° |
| 2026-04-24 20:52 | 49.27655 | 9.90221 | 13642 ft | 342 kts | 171° |
| 2026-04-24 20:53 | 49.25317 | 9.90860 | 13290 ft | 340 kts | 171° |
| 2026-04-24 20:53 | 49.22993 | 9.91500 | 12947 ft | 338 kts | 171° |
| 2026-04-24 20:53 | 49.20666 | 9.91852 | 12606 ft | 334 kts | 185° |
| 2026-04-24 20:53 | 49.18424 | 9.91073 | 12269 ft | 329 kts | 205° |
| 2026-04-24 20:54 | 49.16520 | 9.89201 | 12141 ft | 324 kts | 225° |
| 2026-04-24 20:54 | 49.15141 | 9.86514 | 12164 ft | 322 kts | 244° |
| 2026-04-24 20:54 | 49.14293 | 9.83359 | 12168 ft | 321 kts | 252° |
| 2026-04-24 20:54 | 49.13523 | 9.80158 | 12165 ft | 321 kts | 252° |
| 2026-04-24 20:55 | 49.12754 | 9.76956 | 12166 ft | 321 kts | 251° |
| 2026-04-24 20:55 | 49.11982 | 9.73753 | 12160 ft | 321 kts | 251° |
| 2026-04-24 20:55 | 49.11208 | 9.70556 | 12161 ft | 321 kts | 251° |
| 2026-04-24 20:55 | 49.10432 | 9.67362 | 12160 ft | 321 kts | 251° |
| 2026-04-24 20:56 | 49.09666 | 9.64214 | 12160 ft | 309 kts | 251° |
| 2026-04-24 20:56 | 49.08941 | 9.61247 | 12163 ft | 299 kts | 251° |
| 2026-04-24 20:56 | 49.08219 | 9.58289 | 11707 ft | 295 kts | 251° |
| 2026-04-24 20:56 | 49.07504 | 9.55356 | 10890 ft | 294 kts | 251° |
| 2026-04-24 20:57 | 49.06793 | 9.52437 | 10094 ft | 292 kts | 251° |
| 2026-04-24 20:57 | 49.06089 | 9.49549 | 9283 ft | 288 kts | 250° |
| 2026-04-24 20:57 | 49.05162 | 9.46900 | 8994 ft | 283 kts | 235° |
| 2026-04-24 20:57 | 49.03810 | 9.44682 | 8857 ft | 287 kts | 220° |
| 2026-04-24 20:58 | 49.02129 | 9.43042 | 8741 ft | 288 kts | 210° |
| 2026-04-24 20:58 | 49.00372 | 9.41586 | 8610 ft | 287 kts | 210° |
| 2026-04-24 20:58 | 48.98620 | 9.40131 | 8482 ft | 286 kts | 210° |
| 2026-04-24 20:58 | 48.96876 | 9.38676 | 8406 ft | 286 kts | 210° |
| 2026-04-24 20:59 | 48.95135 | 9.37222 | 8251 ft | 285 kts | 210° |
| 2026-04-24 20:59 | 48.93397 | 9.35774 | 8075 ft | 284 kts | 210° |
| 2026-04-24 20:59 | 48.91664 | 9.34334 | 7896 ft | 283 kts | 210° |
| 2026-04-24 20:59 | 48.90002 | 9.32754 | 7729 ft | 280 kts | 219° |
| 2026-04-24 21:00 | 48.88591 | 9.30747 | 7549 ft | 277 kts | 231° |
| 2026-04-24 21:00 | 48.87420 | 9.28436 | 7389 ft | 276 kts | 235° |
| 2026-04-24 21:00 | 48.86276 | 9.26103 | 7218 ft | 275 kts | 235° |
| 2026-04-24 21:00 | 48.85128 | 9.23779 | 7041 ft | 274 kts | 235° |
| 2026-04-24 21:01 | 48.83986 | 9.21473 | 6876 ft | 273 kts | 234° |
| 2026-04-24 21:01 | 48.82845 | 9.19171 | 6716 ft | 273 kts | 234° |
| 2026-04-24 21:01 | 48.81707 | 9.16873 | 6520 ft | 272 kts | 234° |
| 2026-04-24 21:01 | 48.80574 | 9.14580 | 6367 ft | 271 kts | 234° |
| 2026-04-24 21:02 | 48.79442 | 9.12290 | 6195 ft | 271 kts | 234° |
| 2026-04-24 21:02 | 48.78310 | 9.10005 | 6029 ft | 271 kts | 234° |
| 2026-04-24 21:02 | 48.77193 | 9.07751 | 5865 ft | 271 kts | 234° |
| 2026-04-24 21:02 | 48.76046 | 9.05439 | 5694 ft | 270 kts | 234° |
| 2026-04-24 21:03 | 48.74919 | 9.03205 | 5526 ft | 270 kts | 233° |
| 2026-04-24 21:03 | 48.73716 | 9.00942 | 5235 ft | 269 kts | 231° |
| 2026-04-24 21:03 | 48.72531 | 8.98773 | 5037 ft | 269 kts | 231° |
| 2026-04-24 21:03 | 48.71350 | 8.96626 | 4642 ft | 271 kts | 231° |
| 2026-04-24 21:04 | 48.70144 | 8.94429 | 4445 ft | 261 kts | 231° |
| 2026-04-24 21:04 | 48.69031 | 8.92390 | 4377 ft | 248 kts | 231° |
| 2026-04-24 21:04 | 48.67950 | 8.90405 | 4327 ft | 235 kts | 231° |
| 2026-04-24 21:04 | 48.66828 | 8.88750 | 4288 ft | 223 kts | 214° |
| 2026-04-24 21:05 | 48.65452 | 8.87853 | 4246 ft | 208 kts | 191° |
| 2026-04-24 21:05 | 48.64123 | 8.88133 | 4198 ft | 186 kts | 151° |
| 2026-04-24 21:05 | 48.63271 | 8.89438 | 4114 ft | 170 kts | 114° |
| 2026-04-24 21:05 | 48.63067 | 8.91131 | 4035 ft | 162 kts | 81° |
| 2026-04-24 21:06 | 48.63346 | 8.92755 | 4012 ft | 159 kts | 72° |
| 2026-04-24 21:06 | 48.63657 | 8.94358 | 4011 ft | 159 kts | 72° |
| 2026-04-24 21:06 | 48.63989 | 8.96070 | 4032 ft | 182 kts | 72° |
| 2026-04-24 21:06 | 48.64350 | 8.97944 | 4016 ft | 188 kts | 72° |
| 2026-04-24 21:07 | 48.64716 | 8.99847 | 3973 ft | 189 kts | 72° |
| 2026-04-24 21:07 | 48.65082 | 9.01754 | 3786 ft | 188 kts | 72° |
| 2026-04-24 21:07 | 48.65445 | 9.03642 | 3557 ft | 186 kts | 72° |
| 2026-04-24 21:07 | 48.65802 | 9.05506 | 3315 ft | 183 kts | 72° |
| 2026-04-24 21:08 | 48.66151 | 9.07325 | 3079 ft | 173 kts | 73° |
| 2026-04-24 21:08 | 48.66464 | 9.08966 | 2859 ft | 153 kts | 72° |
| 2026-04-24 21:08 | 48.66752 | 9.10470 | 2646 ft | 146 kts | 73° |
| 2026-04-24 21:08 | 48.67034 | 9.11937 | 2445 ft | 144 kts | 72° |
| 2026-04-24 21:09 | 48.67318 | 9.13390 | 2251 ft | 144 kts | 73° |
| 2026-04-24 21:09 | 48.67594 | 9.14843 | 2055 ft | 144 kts | 73° |
| 2026-04-24 21:09 | 48.67868 | 9.16296 | 1867 ft | 143 kts | 73° |
| 2026-04-24 21:09 | 48.68139 | 9.17742 | 1683 ft | 143 kts | 73° |
| 2026-04-24 21:10 | 48.68415 | 9.19178 | 1498 ft | 142 kts | 72° |
| 2026-04-24 21:10 | 48.68689 | 9.20604 | 1311 ft | 142 kts | 73° |
| 2026-04-24 21:10 | 48.68963 | 9.21981 | 1257 ft | 126 kts | 71° |
| 2026-04-24 21:10 | 48.69161 | 9.22996 | 1217 ft | 50 kts | 73° |
| 2026-04-24 21:11 | 48.69205 | 9.23290 | 1211 ft | 27 kts | 78° |
| 2026-04-24 21:11 | 48.69301 | 9.23561 | 1205 ft | 31 kts | 49° |
| 2026-04-24 21:11 | 48.69444 | 9.23748 | 1207 ft | 21 kts | 11° |
| 2026-04-24 21:11 | 48.69521 | 9.23643 | 1212 ft | 14 kts | 267° |
| 2026-04-24 21:12 | 48.69499 | 9.23522 | 1215 ft | 11 kts | 253° |
| 2026-04-24 21:12 | 48.69486 | 9.23457 | 1216 ft | 9 kts | 254° |
| 2026-04-24 21:12 | 48.69454 | 9.23285 | 1220 ft | 16 kts | 253° |
| 2026-04-24 21:12 | 48.69427 | 9.23137 | 1223 ft | 13 kts | 256° |
| 2026-04-24 21:13 | 48.69401 | 9.23001 | 1226 ft | 15 kts | 252° |
| 2026-04-24 21:13 | 48.69367 | 9.22823 | 1229 ft | 17 kts | 258° |
| 2026-04-24 21:13 | 48.69332 | 9.22633 | 1233 ft | 23 kts | 253° |
| 2026-04-24 21:13 | 48.69284 | 9.22389 | 1252 ft | 23 kts | 252° |
| 2026-04-24 21:14 | 48.69241 | 9.22167 | 1249 ft | 21 kts | 253° |
| 2026-04-24 21:14 | 48.69205 | 9.21975 | 1260 ft | 17 kts | 255° |
| 2026-04-24 21:14 | 48.69176 | 9.21812 | 1256 ft | 14 kts | 255° |
| 2026-04-24 21:14 | 48.69151 | 9.21682 | 1255 ft | 12 kts | 254° |
| 2026-04-24 21:15 | 48.69118 | 9.21514 | 1262 ft | 23 kts | 253° |
| 2026-04-24 21:15 | 48.69067 | 9.21246 | 1267 ft | 27 kts | 253° |
| 2026-04-24 21:15 | 48.69017 | 9.20989 | 1274 ft | 24 kts | 254° |
| 2026-04-24 21:15 | 48.68976 | 9.20759 | 1277 ft | 21 kts | 254° |
| 2026-04-24 21:16 | 48.68935 | 9.20536 | 1282 ft | 21 kts | 253° |
| 2026-04-24 21:16 | 48.68895 | 9.20340 | 1287 ft | 19 kts | 252° |
| 2026-04-24 21:16 | 48.68847 | 9.20088 | 1293 ft | 27 kts | 254° |
| 2026-04-24 21:16 | 48.68846 | 9.19905 | 1299 ft | 11 kts | 311° |
| 2026-04-24 21:17 | 48.68888 | 9.19835 | 1304 ft | 9 kts | 287° |
| 2026-04-24 21:17 | 48.68876 | 9.19752 | 1306 ft | 12 kts | 254° |
| 2026-04-24 21:17 | 48.68859 | 9.19609 | 1310 ft | 9 kts | 296° |
| 2026-04-24 21:17 | 48.68880 | 9.19596 | 1312 ft | 3 kts | 353° |
| 2026-04-24 21:18 | 48.68909 | 9.19587 | 1313 ft | 2 kts | 346° |
| 2026-04-24 21:18 | 48.68912 | 9.19586 | 1314 ft | 0 kts | 345° |
| 2026-04-24 21:18 | 48.68920 | 9.19583 | 1314 ft | 0 kts | 345° |